sensor_id;sensor_type;location;lat;lon;timestamp;P1;durP1;ratioP1;P2;durP2;ratioP2
7179;SDS011;3631;42.152;24.756;2023-01-04T00:02:05;98.57;;;48.80;;
7179;SDS011;3631;42.152;24.756;2023-01-04T00:04:32;94.90;;;48.90;;
7179;SDS011;3631;42.152;24.756;2023-01-04T00:07:00;98.83;;;49.73;;
7179;SDS011;3631;42.152;24.756;2023-01-04T00:09:27;107.67;;;51.43;;
7179;SDS011;3631;42.152;24.756;2023-01-04T00:11:54;104.93;;;50.57;;
7179;SDS011;3631;42.152;24.756;2023-01-04T00:14:20;119.53;;;64.00;;
7179;SDS011;3631;42.152;24.756;2023-01-04T00:16:47;97.73;;;49.47;;
7179;SDS011;3631;42.152;24.756;2023-01-04T00:19:14;95.10;;;47.53;;
7179;SDS011;3631;42.152;24.756;2023-01-04T00:21:41;91.40;;;47.20;;
7179;SDS011;3631;42.152;24.756;2023-01-04T00:24:09;87.77;;;45.13;;
7179;SDS011;3631;42.152;24.756;2023-01-04T00:26:39;84.60;;;44.10;;
7179;SDS011;3631;42.152;24.756;2023-01-04T00:29:06;80.83;;;43.00;;
7179;SDS011;3631;42.152;24.756;2023-01-04T00:31:33;89.80;;;44.37;;
7179;SDS011;3631;42.152;24.756;2023-01-04T00:34:01;85.80;;;43.60;;
7179;SDS011;3631;42.152;24.756;2023-01-04T00:36:29;75.43;;;40.40;;
7179;SDS011;3631;42.152;24.756;2023-01-04T00:38:58;84.87;;;43.27;;
7179;SDS011;3631;42.152;24.756;2023-01-04T00:41:39;80.40;;;43.53;;
7179;SDS011;3631;42.152;24.756;2023-01-04T00:44:07;84.00;;;42.23;;
7179;SDS011;3631;42.152;24.756;2023-01-04T00:46:35;79.57;;;41.20;;
7179;SDS011;3631;42.152;24.756;2023-01-04T00:49:02;80.63;;;41.40;;
7179;SDS011;3631;42.152;24.756;2023-01-04T00:51:30;76.63;;;41.17;;
7179;SDS011;3631;42.152;24.756;2023-01-04T00:53:59;76.70;;;40.47;;
7179;SDS011;3631;42.152;24.756;2023-01-04T00:56:27;84.07;;;42.80;;
7179;SDS011;3631;42.152;24.756;2023-01-04T00:58:55;82.63;;;42.40;;
7179;SDS011;3631;42.152;24.756;2023-01-04T01:01:23;84.23;;;42.43;;
7179;SDS011;3631;42.152;24.756;2023-01-04T01:03:52;83.57;;;41.37;;
7179;SDS011;3631;42.152;24.756;2023-01-04T01:06:20;83.20;;;41.30;;
7179;SDS011;3631;42.152;24.756;2023-01-04T01:08:49;83.63;;;41.17;;
7179;SDS011;3631;42.152;24.756;2023-01-04T01:11:16;78.50;;;38.60;;
7179;SDS011;3631;42.152;24.756;2023-01-04T01:13:43;71.23;;;39.20;;
7179;SDS011;3631;42.152;24.756;2023-01-04T01:16:13;67.90;;;39.87;;
7179;SDS011;3631;42.152;24.756;2023-01-04T01:18:41;69.63;;;37.90;;
7179;SDS011;3631;42.152;24.756;2023-01-04T01:21:10;72.10;;;39.33;;
7179;SDS011;3631;42.152;24.756;2023-01-04T01:23:39;65.73;;;35.50;;
7179;SDS011;3631;42.152;24.756;2023-01-04T01:26:09;58.77;;;34.77;;
7179;SDS011;3631;42.152;24.756;2023-01-04T01:28:37;66.70;;;36.90;;
7179;SDS011;3631;42.152;24.756;2023-01-04T01:31:04;68.93;;;37.30;;
7179;SDS011;3631;42.152;24.756;2023-01-04T01:33:34;63.30;;;36.53;;
7179;SDS011;3631;42.152;24.756;2023-01-04T01:36:01;66.63;;;36.27;;
7179;SDS011;3631;42.152;24.756;2023-01-04T01:38:29;64.83;;;36.20;;
7179;SDS011;3631;42.152;24.756;2023-01-04T01:40:56;67.57;;;35.70;;
7179;SDS011;3631;42.152;24.756;2023-01-04T01:46:16;65.47;;;34.37;;
7179;SDS011;3631;42.152;24.756;2023-01-04T01:48:48;67.60;;;34.67;;
7179;SDS011;3631;42.152;24.756;2023-01-04T01:51:18;55.37;;;31.90;;
7179;SDS011;3631;42.152;24.756;2023-01-04T01:53:47;63.90;;;33.27;;
7179;SDS011;3631;42.152;24.756;2023-01-04T01:56:18;79.83;;;41.77;;
7179;SDS011;3631;42.152;24.756;2023-01-04T01:58:46;81.20;;;41.23;;
7179;SDS011;3631;42.152;24.756;2023-01-04T02:01:19;84.70;;;42.27;;
7179;SDS011;3631;42.152;24.756;2023-01-04T02:03:46;78.33;;;41.53;;
7179;SDS011;3631;42.152;24.756;2023-01-04T02:06:17;67.43;;;36.87;;
7179;SDS011;3631;42.152;24.756;2023-01-04T02:08:46;60.97;;;34.23;;
7179;SDS011;3631;42.152;24.756;2023-01-04T02:11:14;58.97;;;33.93;;
7179;SDS011;3631;42.152;24.756;2023-01-04T02:13:41;59.33;;;32.03;;
7179;SDS011;3631;42.152;24.756;2023-01-04T02:16:30;60.67;;;31.90;;
7179;SDS011;3631;42.152;24.756;2023-01-04T02:19:14;54.67;;;32.57;;
7179;SDS011;3631;42.152;24.756;2023-01-04T02:22:01;55.47;;;32.50;;
7179;SDS011;3631;42.152;24.756;2023-01-04T02:24:52;56.83;;;31.20;;
7179;SDS011;3631;42.152;24.756;2023-01-04T02:27:50;87.07;;;42.50;;
7179;SDS011;3631;42.152;24.756;2023-01-04T02:33:32;61.47;;;31.97;;
7179;SDS011;3631;42.152;24.756;2023-01-04T02:36:08;61.33;;;32.60;;
7179;SDS011;3631;42.152;24.756;2023-01-04T02:38:44;53.73;;;30.17;;
7179;SDS011;3631;42.152;24.756;2023-01-04T02:41:19;58.03;;;32.07;;
7179;SDS011;3631;42.152;24.756;2023-01-04T02:43:52;56.27;;;32.43;;
7179;SDS011;3631;42.152;24.756;2023-01-04T02:46:42;51.57;;;29.63;;
7179;SDS011;3631;42.152;24.756;2023-01-04T02:49:13;53.73;;;31.40;;
7179;SDS011;3631;42.152;24.756;2023-01-04T02:51:57;54.77;;;30.53;;
7179;SDS011;3631;42.152;24.756;2023-01-04T02:54:25;56.20;;;31.97;;
7179;SDS011;3631;42.152;24.756;2023-01-04T02:57:03;57.57;;;32.00;;
7179;SDS011;3631;42.152;24.756;2023-01-04T02:59:47;54.63;;;30.23;;
7179;SDS011;3631;42.152;24.756;2023-01-04T03:02:35;54.03;;;29.40;;
7179;SDS011;3631;42.152;24.756;2023-01-04T03:05:31;56.17;;;31.07;;
7179;SDS011;3631;42.152;24.756;2023-01-04T03:08:26;58.27;;;31.97;;
7179;SDS011;3631;42.152;24.756;2023-01-04T03:10:58;56.50;;;31.97;;
7179;SDS011;3631;42.152;24.756;2023-01-04T03:13:29;58.23;;;33.80;;
7179;SDS011;3631;42.152;24.756;2023-01-04T03:16:01;64.97;;;35.57;;
7179;SDS011;3631;42.152;24.756;2023-01-04T03:18:33;62.73;;;34.53;;
7179;SDS011;3631;42.152;24.756;2023-01-04T03:21:05;66.97;;;36.27;;
7179;SDS011;3631;42.152;24.756;2023-01-04T03:23:35;58.63;;;33.57;;
7179;SDS011;3631;42.152;24.756;2023-01-04T03:26:22;53.90;;;30.10;;
7179;SDS011;3631;42.152;24.756;2023-01-04T03:29:12;61.50;;;31.07;;
7179;SDS011;3631;42.152;24.756;2023-01-04T03:32:04;56.83;;;30.97;;
7179;SDS011;3631;42.152;24.756;2023-01-04T03:34:54;53.47;;;30.03;;
7179;SDS011;3631;42.152;24.756;2023-01-04T03:37:41;61.33;;;32.90;;
7179;SDS011;3631;42.152;24.756;2023-01-04T03:40:19;60.63;;;31.57;;
7179;SDS011;3631;42.152;24.756;2023-01-04T03:43:11;51.20;;;28.17;;
7179;SDS011;3631;42.152;24.756;2023-01-04T03:46:02;58.40;;;30.10;;
7179;SDS011;3631;42.152;24.756;2023-01-04T03:48:52;53.40;;;28.73;;
7179;SDS011;3631;42.152;24.756;2023-01-04T03:51:27;49.03;;;28.10;;
7179;SDS011;3631;42.152;24.756;2023-01-04T03:53:58;47.40;;;27.67;;
7179;SDS011;3631;42.152;24.756;2023-01-04T03:56:28;53.63;;;28.57;;
7179;SDS011;3631;42.152;24.756;2023-01-04T03:58:56;51.80;;;27.80;;
7179;SDS011;3631;42.152;24.756;2023-01-04T04:01:24;48.47;;;25.50;;
7179;SDS011;3631;42.152;24.756;2023-01-04T04:03:52;48.27;;;25.70;;
7179;SDS011;3631;42.152;24.756;2023-01-04T04:06:38;49.67;;;25.83;;
7179;SDS011;3631;42.152;24.756;2023-01-04T04:09:23;48.13;;;25.47;;
7179;SDS011;3631;42.152;24.756;2023-01-04T04:11:50;45.77;;;27.73;;
7179;SDS011;3631;42.152;24.756;2023-01-04T04:14:16;48.27;;;27.90;;
7179;SDS011;3631;42.152;24.756;2023-01-04T04:16:43;51.50;;;27.93;;
7179;SDS011;3631;42.152;24.756;2023-01-04T04:19:10;55.93;;;30.37;;
7179;SDS011;3631;42.152;24.756;2023-01-04T04:21:38;56.10;;;31.00;;
7179;SDS011;3631;42.152;24.756;2023-01-04T04:24:05;59.77;;;31.33;;
7179;SDS011;3631;42.152;24.756;2023-01-04T04:26:33;65.67;;;32.90;;
7179;SDS011;3631;42.152;24.756;2023-01-04T04:29:00;58.63;;;29.87;;
7179;SDS011;3631;42.152;24.756;2023-01-04T04:31:26;71.20;;;38.23;;
7179;SDS011;3631;42.152;24.756;2023-01-04T04:33:53;64.33;;;34.17;;
7179;SDS011;3631;42.152;24.756;2023-01-04T04:36:20;66.40;;;34.17;;
7179;SDS011;3631;42.152;24.756;2023-01-04T04:38:48;54.73;;;31.23;;
7179;SDS011;3631;42.152;24.756;2023-01-04T04:41:15;54.50;;;30.57;;
7179;SDS011;3631;42.152;24.756;2023-01-04T04:44:00;57.87;;;30.30;;
7179;SDS011;3631;42.152;24.756;2023-01-04T04:46:27;52.00;;;28.70;;
7179;SDS011;3631;42.152;24.756;2023-01-04T04:48:54;52.80;;;29.17;;
7179;SDS011;3631;42.152;24.756;2023-01-04T04:51:20;54.03;;;28.83;;
7179;SDS011;3631;42.152;24.756;2023-01-04T04:53:49;52.73;;;28.83;;
7179;SDS011;3631;42.152;24.756;2023-01-04T04:56:16;53.30;;;29.10;;
7179;SDS011;3631;42.152;24.756;2023-01-04T04:58:43;52.50;;;30.07;;
7179;SDS011;3631;42.152;24.756;2023-01-04T05:01:09;55.77;;;28.97;;
7179;SDS011;3631;42.152;24.756;2023-01-04T05:03:36;55.87;;;29.70;;
7179;SDS011;3631;42.152;24.756;2023-01-04T05:06:03;50.57;;;28.17;;
7179;SDS011;3631;42.152;24.756;2023-01-04T05:08:31;49.13;;;27.93;;
7179;SDS011;3631;42.152;24.756;2023-01-04T05:11:03;47.40;;;28.77;;
7179;SDS011;3631;42.152;24.756;2023-01-04T05:13:31;48.47;;;28.27;;
7179;SDS011;3631;42.152;24.756;2023-01-04T05:15:57;47.10;;;27.53;;
7179;SDS011;3631;42.152;24.756;2023-01-04T05:18:24;44.57;;;25.63;;
7179;SDS011;3631;42.152;24.756;2023-01-04T05:20:51;40.20;;;24.70;;
7179;SDS011;3631;42.152;24.756;2023-01-04T05:23:18;38.43;;;24.87;;
7179;SDS011;3631;42.152;24.756;2023-01-04T05:25:47;41.07;;;24.30;;
7179;SDS011;3631;42.152;24.756;2023-01-04T05:28:18;42.40;;;24.47;;
7179;SDS011;3631;42.152;24.756;2023-01-04T05:30:47;43.73;;;23.87;;
7179;SDS011;3631;42.152;24.756;2023-01-04T05:33:18;39.40;;;23.00;;
7179;SDS011;3631;42.152;24.756;2023-01-04T05:35:46;43.63;;;23.20;;
7179;SDS011;3631;42.152;24.756;2023-01-04T05:38:12;44.23;;;23.53;;
7179;SDS011;3631;42.152;24.756;2023-01-04T05:40:40;39.63;;;22.87;;
7179;SDS011;3631;42.152;24.756;2023-01-04T05:43:07;36.00;;;23.57;;
7179;SDS011;3631;42.152;24.756;2023-01-04T05:45:35;42.23;;;23.37;;
7179;SDS011;3631;42.152;24.756;2023-01-04T05:48:02;41.47;;;24.13;;
7179;SDS011;3631;42.152;24.756;2023-01-04T05:50:29;40.03;;;23.37;;
7179;SDS011;3631;42.152;24.756;2023-01-04T05:52:57;42.90;;;24.13;;
7179;SDS011;3631;42.152;24.756;2023-01-04T05:55:23;41.73;;;23.90;;
7179;SDS011;3631;42.152;24.756;2023-01-04T05:57:50;37.13;;;23.30;;
7179;SDS011;3631;42.152;24.756;2023-01-04T06:00:17;41.70;;;24.40;;
7179;SDS011;3631;42.152;24.756;2023-01-04T06:02:46;42.80;;;23.97;;
7179;SDS011;3631;42.152;24.756;2023-01-04T06:05:12;46.10;;;26.03;;
7179;SDS011;3631;42.152;24.756;2023-01-04T06:07:39;48.53;;;26.67;;
7179;SDS011;3631;42.152;24.756;2023-01-04T06:10:07;50.63;;;26.93;;
7179;SDS011;3631;42.152;24.756;2023-01-04T06:12:36;46.37;;;26.17;;
7179;SDS011;3631;42.152;24.756;2023-01-04T06:15:03;51.83;;;26.87;;
7179;SDS011;3631;42.152;24.756;2023-01-04T06:17:31;50.57;;;27.77;;
7179;SDS011;3631;42.152;24.756;2023-01-04T06:20:00;51.07;;;29.73;;
7179;SDS011;3631;42.152;24.756;2023-01-04T06:22:28;52.63;;;31.17;;
7179;SDS011;3631;42.152;24.756;2023-01-04T06:24:55;64.23;;;30.13;;
7179;SDS011;3631;42.152;24.756;2023-01-04T06:27:22;55.80;;;29.67;;
7179;SDS011;3631;42.152;24.756;2023-01-04T06:29:48;55.37;;;29.03;;
7179;SDS011;3631;42.152;24.756;2023-01-04T06:32:15;56.20;;;28.07;;
7179;SDS011;3631;42.152;24.756;2023-01-04T06:34:42;51.40;;;28.07;;
7179;SDS011;3631;42.152;24.756;2023-01-04T06:37:11;52.37;;;27.57;;
7179;SDS011;3631;42.152;24.756;2023-01-04T06:39:38;45.97;;;26.80;;
7179;SDS011;3631;42.152;24.756;2023-01-04T06:42:05;52.80;;;30.07;;
7179;SDS011;3631;42.152;24.756;2023-01-04T06:44:52;47.50;;;27.20;;
7179;SDS011;3631;42.152;24.756;2023-01-04T06:47:20;44.37;;;26.33;;
7179;SDS011;3631;42.152;24.756;2023-01-04T06:49:47;49.23;;;27.07;;
7179;SDS011;3631;42.152;24.756;2023-01-04T06:52:15;52.87;;;30.27;;
7179;SDS011;3631;42.152;24.756;2023-01-04T06:54:42;54.63;;;28.43;;
7179;SDS011;3631;42.152;24.756;2023-01-04T06:57:09;52.33;;;29.60;;
7179;SDS011;3631;42.152;24.756;2023-01-04T06:59:36;59.93;;;32.00;;
7179;SDS011;3631;42.152;24.756;2023-01-04T07:02:03;63.67;;;34.17;;
7179;SDS011;3631;42.152;24.756;2023-01-04T07:04:33;59.37;;;32.47;;
7179;SDS011;3631;42.152;24.756;2023-01-04T07:07:00;54.90;;;32.37;;
7179;SDS011;3631;42.152;24.756;2023-01-04T07:09:28;65.20;;;32.47;;
7179;SDS011;3631;42.152;24.756;2023-01-04T07:11:55;60.50;;;33.77;;
7179;SDS011;3631;42.152;24.756;2023-01-04T07:14:23;72.67;;;37.23;;
7179;SDS011;3631;42.152;24.756;2023-01-04T07:16:50;66.27;;;35.60;;
7179;SDS011;3631;42.152;24.756;2023-01-04T07:19:17;63.47;;;35.43;;
7179;SDS011;3631;42.152;24.756;2023-01-04T07:21:44;66.87;;;35.40;;
7179;SDS011;3631;42.152;24.756;2023-01-04T07:24:11;68.03;;;35.63;;
7179;SDS011;3631;42.152;24.756;2023-01-04T07:26:39;62.77;;;35.70;;
7179;SDS011;3631;42.152;24.756;2023-01-04T07:29:06;66.93;;;35.67;;
7179;SDS011;3631;42.152;24.756;2023-01-04T07:31:42;62.20;;;35.07;;
7179;SDS011;3631;42.152;24.756;2023-01-04T07:34:10;58.93;;;33.50;;
7179;SDS011;3631;42.152;24.756;2023-01-04T07:36:37;62.70;;;32.90;;
7179;SDS011;3631;42.152;24.756;2023-01-04T07:39:05;61.83;;;35.00;;
7179;SDS011;3631;42.152;24.756;2023-01-04T07:41:34;58.30;;;33.30;;
7179;SDS011;3631;42.152;24.756;2023-01-04T07:44:03;74.23;;;39.33;;
7179;SDS011;3631;42.152;24.756;2023-01-04T07:46:30;76.50;;;43.93;;
7179;SDS011;3631;42.152;24.756;2023-01-04T07:48:57;109.47;;;55.53;;
7179;SDS011;3631;42.152;24.756;2023-01-04T07:51:24;99.07;;;51.33;;
7179;SDS011;3631;42.152;24.756;2023-01-04T07:53:51;67.13;;;36.30;;
7179;SDS011;3631;42.152;24.756;2023-01-04T07:56:18;62.20;;;37.13;;
7179;SDS011;3631;42.152;24.756;2023-01-04T07:58:45;64.67;;;35.80;;
7179;SDS011;3631;42.152;24.756;2023-01-04T08:01:14;58.83;;;34.23;;
7179;SDS011;3631;42.152;24.756;2023-01-04T08:03:45;58.67;;;34.77;;
7179;SDS011;3631;42.152;24.756;2023-01-04T08:06:13;67.10;;;35.87;;
7179;SDS011;3631;42.152;24.756;2023-01-04T08:08:42;61.93;;;35.23;;
7179;SDS011;3631;42.152;24.756;2023-01-04T08:11:13;60.10;;;35.07;;
7179;SDS011;3631;42.152;24.756;2023-01-04T08:13:41;63.40;;;36.70;;
7179;SDS011;3631;42.152;24.756;2023-01-04T08:16:12;64.90;;;37.90;;
7179;SDS011;3631;42.152;24.756;2023-01-04T08:18:46;62.80;;;36.90;;
7179;SDS011;3631;42.152;24.756;2023-01-04T08:21:13;73.87;;;37.37;;
7179;SDS011;3631;42.152;24.756;2023-01-04T08:23:40;73.17;;;38.63;;
7179;SDS011;3631;42.152;24.756;2023-01-04T08:26:08;69.43;;;39.17;;
7179;SDS011;3631;42.152;24.756;2023-01-04T08:28:37;66.67;;;37.30;;
7179;SDS011;3631;42.152;24.756;2023-01-04T08:31:05;62.43;;;36.63;;
7179;SDS011;3631;42.152;24.756;2023-01-04T08:33:35;66.80;;;38.27;;
7179;SDS011;3631;42.152;24.756;2023-01-04T08:36:07;67.97;;;37.70;;
7179;SDS011;3631;42.152;24.756;2023-01-04T08:38:36;71.07;;;37.40;;
7179;SDS011;3631;42.152;24.756;2023-01-04T08:41:03;87.90;;;40.00;;
7179;SDS011;3631;42.152;24.756;2023-01-04T08:43:30;69.40;;;40.53;;
7179;SDS011;3631;42.152;24.756;2023-01-04T08:45:57;86.60;;;45.03;;
7179;SDS011;3631;42.152;24.756;2023-01-04T08:48:24;79.30;;;41.53;;
7179;SDS011;3631;42.152;24.756;2023-01-04T08:50:52;66.10;;;39.33;;
7179;SDS011;3631;42.152;24.756;2023-01-04T08:53:19;68.10;;;40.50;;
7179;SDS011;3631;42.152;24.756;2023-01-04T08:55:49;65.40;;;39.03;;
7179;SDS011;3631;42.152;24.756;2023-01-04T08:58:16;65.63;;;37.50;;
7179;SDS011;3631;42.152;24.756;2023-01-04T09:00:43;61.27;;;36.17;;
7179;SDS011;3631;42.152;24.756;2023-01-04T09:03:11;66.23;;;36.60;;
7179;SDS011;3631;42.152;24.756;2023-01-04T09:05:38;77.93;;;42.20;;
7179;SDS011;3631;42.152;24.756;2023-01-04T09:08:07;79.20;;;40.03;;
7179;SDS011;3631;42.152;24.756;2023-01-04T09:10:36;68.77;;;38.53;;
7179;SDS011;3631;42.152;24.756;2023-01-04T09:13:04;104.17;;;56.50;;
7179;SDS011;3631;42.152;24.756;2023-01-04T09:15:31;81.57;;;43.80;;
7179;SDS011;3631;42.152;24.756;2023-01-04T09:17:59;88.13;;;46.17;;
7179;SDS011;3631;42.152;24.756;2023-01-04T09:20:27;70.20;;;40.60;;
7179;SDS011;3631;42.152;24.756;2023-01-04T09:22:55;60.37;;;38.07;;
7179;SDS011;3631;42.152;24.756;2023-01-04T09:25:24;77.53;;;43.27;;
7179;SDS011;3631;42.152;24.756;2023-01-04T09:27:51;76.00;;;41.87;;
7179;SDS011;3631;42.152;24.756;2023-01-04T09:30:18;83.93;;;43.17;;
7179;SDS011;3631;42.152;24.756;2023-01-04T09:32:45;79.13;;;42.83;;
7179;SDS011;3631;42.152;24.756;2023-01-04T09:35:12;77.10;;;43.03;;
7179;SDS011;3631;42.152;24.756;2023-01-04T09:37:39;83.90;;;45.20;;
7179;SDS011;3631;42.152;24.756;2023-01-04T09:40:06;101.73;;;46.53;;
7179;SDS011;3631;42.152;24.756;2023-01-04T09:42:45;94.67;;;41.10;;
7179;SDS011;3631;42.152;24.756;2023-01-04T09:45:15;127.27;;;51.23;;
7179;SDS011;3631;42.152;24.756;2023-01-04T09:47:46;74.20;;;35.67;;
7179;SDS011;3631;42.152;24.756;2023-01-04T09:50:20;46.53;;;26.10;;
7179;SDS011;3631;42.152;24.756;2023-01-04T09:52:53;37.80;;;21.70;;
7179;SDS011;3631;42.152;24.756;2023-01-04T09:55:27;33.33;;;17.83;;
7179;SDS011;3631;42.152;24.756;2023-01-04T09:57:59;26.20;;;15.80;;
7179;SDS011;3631;42.152;24.756;2023-01-04T10:00:29;28.97;;;16.60;;
7179;SDS011;3631;42.152;24.756;2023-01-04T10:03:02;21.80;;;15.03;;
7179;SDS011;3631;42.152;24.756;2023-01-04T10:05:37;21.50;;;15.43;;
7179;SDS011;3631;42.152;24.756;2023-01-04T10:08:07;20.33;;;15.20;;
7179;SDS011;3631;42.152;24.756;2023-01-04T10:10:44;23.03;;;15.73;;
7179;SDS011;3631;42.152;24.756;2023-01-04T10:13:19;20.30;;;15.57;;
7179;SDS011;3631;42.152;24.756;2023-01-04T10:15:56;17.70;;;14.90;;
7179;SDS011;3631;42.152;24.756;2023-01-04T10:18:35;15.43;;;13.37;;
7179;SDS011;3631;42.152;24.756;2023-01-04T10:21:21;28.17;;;14.37;;
7179;SDS011;3631;42.152;24.756;2023-01-04T10:26:58;21.03;;;14.30;;
7179;SDS011;3631;42.152;24.756;2023-01-04T10:29:38;16.03;;;13.77;;
7179;SDS011;3631;42.152;24.756;2023-01-04T10:32:15;17.13;;;13.93;;
7179;SDS011;3631;42.152;24.756;2023-01-04T10:34:45;54.93;;;31.20;;
7179;SDS011;3631;42.152;24.756;2023-01-04T10:37:14;26.07;;;19.20;;
7179;SDS011;3631;42.152;24.756;2023-01-04T10:39:45;34.90;;;20.03;;
7179;SDS011;3631;42.152;24.756;2023-01-04T10:42:17;25.17;;;18.33;;
7179;SDS011;3631;42.152;24.756;2023-01-04T10:44:54;21.23;;;15.90;;
7179;SDS011;3631;42.152;24.756;2023-01-04T10:47:41;28.40;;;19.93;;
7179;SDS011;3631;42.152;24.756;2023-01-04T10:50:15;41.13;;;25.60;;
7179;SDS011;3631;42.152;24.756;2023-01-04T10:52:49;54.93;;;29.10;;
7179;SDS011;3631;42.152;24.756;2023-01-04T10:55:22;52.43;;;28.80;;
7179;SDS011;3631;42.152;24.756;2023-01-04T10:57:55;44.10;;;24.00;;
7179;SDS011;3631;42.152;24.756;2023-01-04T11:00:30;61.93;;;34.40;;
7179;SDS011;3631;42.152;24.756;2023-01-04T11:03:05;30.77;;;20.20;;
7179;SDS011;3631;42.152;24.756;2023-01-04T11:05:38;28.53;;;19.57;;
7179;SDS011;3631;42.152;24.756;2023-01-04T11:08:09;23.67;;;17.10;;
7179;SDS011;3631;42.152;24.756;2023-01-04T11:10:41;21.63;;;16.30;;
7179;SDS011;3631;42.152;24.756;2023-01-04T11:13:11;17.93;;;15.30;;
7179;SDS011;3631;42.152;24.756;2023-01-04T11:15:40;42.90;;;26.63;;
7179;SDS011;3631;42.152;24.756;2023-01-04T11:18:09;33.83;;;19.53;;
7179;SDS011;3631;42.152;24.756;2023-01-04T11:20:38;25.47;;;18.47;;
7179;SDS011;3631;42.152;24.756;2023-01-04T11:23:06;39.57;;;23.03;;
7179;SDS011;3631;42.152;24.756;2023-01-04T11:25:38;25.17;;;18.23;;
7179;SDS011;3631;42.152;24.756;2023-01-04T11:28:12;29.43;;;17.93;;
7179;SDS011;3631;42.152;24.756;2023-01-04T11:30:47;25.67;;;14.77;;
7179;SDS011;3631;42.152;24.756;2023-01-04T11:33:19;29.73;;;16.13;;
7179;SDS011;3631;42.152;24.756;2023-01-04T11:35:49;31.83;;;20.07;;
7179;SDS011;3631;42.152;24.756;2023-01-04T11:38:19;27.17;;;16.90;;
7179;SDS011;3631;42.152;24.756;2023-01-04T11:40:53;25.83;;;18.47;;
7179;SDS011;3631;42.152;24.756;2023-01-04T11:43:24;21.40;;;16.57;;
7179;SDS011;3631;42.152;24.756;2023-01-04T11:45:55;42.60;;;27.17;;
7179;SDS011;3631;42.152;24.756;2023-01-04T11:48:34;36.63;;;25.00;;
7179;SDS011;3631;42.152;24.756;2023-01-04T11:51:14;24.20;;;16.17;;
7179;SDS011;3631;42.152;24.756;2023-01-04T11:53:45;21.10;;;16.43;;
7179;SDS011;3631;42.152;24.756;2023-01-04T11:56:21;25.90;;;19.27;;
7179;SDS011;3631;42.152;24.756;2023-01-04T11:59:03;21.23;;;15.47;;
7179;SDS011;3631;42.152;24.756;2023-01-04T12:01:40;20.40;;;15.90;;
7179;SDS011;3631;42.152;24.756;2023-01-04T12:04:09;23.93;;;19.03;;
7179;SDS011;3631;42.152;24.756;2023-01-04T12:06:39;19.00;;;15.90;;
7179;SDS011;3631;42.152;24.756;2023-01-04T12:09:11;26.53;;;18.97;;
7179;SDS011;3631;42.152;24.756;2023-01-04T12:11:41;26.83;;;16.23;;
7179;SDS011;3631;42.152;24.756;2023-01-04T12:14:15;19.47;;;14.50;;
7179;SDS011;3631;42.152;24.756;2023-01-04T12:16:47;15.83;;;13.43;;
7179;SDS011;3631;42.152;24.756;2023-01-04T12:19:19;17.27;;;13.07;;
7179;SDS011;3631;42.152;24.756;2023-01-04T12:21:48;16.37;;;14.07;;
7179;SDS011;3631;42.152;24.756;2023-01-04T12:24:18;19.97;;;15.80;;
7179;SDS011;3631;42.152;24.756;2023-01-04T12:26:48;19.23;;;14.53;;
7179;SDS011;3631;42.152;24.756;2023-01-04T12:29:38;20.33;;;14.27;;
7179;SDS011;3631;42.152;24.756;2023-01-04T12:47:44;22.93;;;14.47;;
7179;SDS011;3631;42.152;24.756;2023-01-04T12:50:30;18.30;;;13.27;;
7179;SDS011;3631;42.152;24.756;2023-01-04T12:53:02;18.43;;;12.97;;
7179;SDS011;3631;42.152;24.756;2023-01-04T12:58:38;14.47;;;12.93;;
7179;SDS011;3631;42.152;24.756;2023-01-04T13:01:21;16.47;;;12.93;;
7179;SDS011;3631;42.152;24.756;2023-01-04T13:03:54;17.53;;;13.80;;
7179;SDS011;3631;42.152;24.756;2023-01-04T13:06:26;29.00;;;18.07;;
7179;SDS011;3631;42.152;24.756;2023-01-04T13:08:57;22.43;;;15.03;;
7179;SDS011;3631;42.152;24.756;2023-01-04T13:11:45;25.23;;;17.07;;
7179;SDS011;3631;42.152;24.756;2023-01-04T13:14:32;21.73;;;15.83;;
7179;SDS011;3631;42.152;24.756;2023-01-04T13:17:13;20.60;;;16.03;;
7179;SDS011;3631;42.152;24.756;2023-01-04T13:19:44;19.27;;;14.23;;
7179;SDS011;3631;42.152;24.756;2023-01-04T13:22:15;19.13;;;14.27;;
7179;SDS011;3631;42.152;24.756;2023-01-04T13:24:44;18.37;;;14.53;;
7179;SDS011;3631;42.152;24.756;2023-01-04T13:27:15;18.60;;;13.43;;
7179;SDS011;3631;42.152;24.756;2023-01-04T13:29:45;14.57;;;12.77;;
7179;SDS011;3631;42.152;24.756;2023-01-04T13:32:14;15.37;;;12.97;;
7179;SDS011;3631;42.152;24.756;2023-01-04T13:34:49;15.50;;;13.07;;
7179;SDS011;3631;42.152;24.756;2023-01-04T13:37:30;14.63;;;12.30;;
7179;SDS011;3631;42.152;24.756;2023-01-04T13:40:00;15.17;;;12.93;;
7179;SDS011;3631;42.152;24.756;2023-01-04T13:42:38;14.07;;;12.43;;
7179;SDS011;3631;42.152;24.756;2023-01-04T13:45:21;16.67;;;11.73;;
7179;SDS011;3631;42.152;24.756;2023-01-04T13:47:58;12.73;;;10.97;;
7179;SDS011;3631;42.152;24.756;2023-01-04T13:50:31;14.50;;;12.13;;
7179;SDS011;3631;42.152;24.756;2023-01-04T13:52:59;13.57;;;12.13;;
7179;SDS011;3631;42.152;24.756;2023-01-04T13:55:27;15.03;;;12.40;;
7179;SDS011;3631;42.152;24.756;2023-01-04T13:57:56;15.03;;;12.57;;
7179;SDS011;3631;42.152;24.756;2023-01-04T14:00:24;15.90;;;12.57;;
7179;SDS011;3631;42.152;24.756;2023-01-04T14:03:04;14.17;;;12.67;;
7179;SDS011;3631;42.152;24.756;2023-01-04T14:05:44;14.83;;;13.13;;
7179;SDS011;3631;42.152;24.756;2023-01-04T14:08:15;18.27;;;14.20;;
7179;SDS011;3631;42.152;24.756;2023-01-04T14:10:46;19.20;;;14.37;;
7179;SDS011;3631;42.152;24.756;2023-01-04T14:13:15;14.70;;;13.03;;
7179;SDS011;3631;42.152;24.756;2023-01-04T14:15:44;17.13;;;14.23;;
7179;SDS011;3631;42.152;24.756;2023-01-04T14:18:26;20.03;;;14.17;;
7179;SDS011;3631;42.152;24.756;2023-01-04T14:20:56;17.03;;;14.87;;
7179;SDS011;3631;42.152;24.756;2023-01-04T14:23:24;18.77;;;14.50;;
7179;SDS011;3631;42.152;24.756;2023-01-04T14:25:53;17.60;;;14.20;;
7179;SDS011;3631;42.152;24.756;2023-01-04T14:28:33;20.60;;;15.43;;
7179;SDS011;3631;42.152;24.756;2023-01-04T14:34:06;18.70;;;13.73;;
7179;SDS011;3631;42.152;24.756;2023-01-04T14:36:43;17.80;;;14.57;;
7179;SDS011;3631;42.152;24.756;2023-01-04T14:39:31;16.07;;;14.17;;
7179;SDS011;3631;42.152;24.756;2023-01-04T14:41:59;19.53;;;14.67;;
7179;SDS011;3631;42.152;24.756;2023-01-04T14:44:27;23.07;;;15.63;;
7179;SDS011;3631;42.152;24.756;2023-01-04T14:46:56;17.27;;;15.43;;
7179;SDS011;3631;42.152;24.756;2023-01-04T14:49:25;22.27;;;16.97;;
7179;SDS011;3631;42.152;24.756;2023-01-04T14:51:54;19.43;;;16.03;;
7179;SDS011;3631;42.152;24.756;2023-01-04T14:54:22;20.27;;;16.17;;
7179;SDS011;3631;42.152;24.756;2023-01-04T14:56:50;24.47;;;17.00;;
7179;SDS011;3631;42.152;24.756;2023-01-04T14:59:18;25.93;;;18.30;;
7179;SDS011;3631;42.152;24.756;2023-01-04T15:01:47;21.57;;;16.77;;
7179;SDS011;3631;42.152;24.756;2023-01-04T15:04:14;25.43;;;17.83;;
7179;SDS011;3631;42.152;24.756;2023-01-04T15:06:48;26.40;;;18.23;;
7179;SDS011;3631;42.152;24.756;2023-01-04T15:09:18;20.37;;;16.03;;
7179;SDS011;3631;42.152;24.756;2023-01-04T15:11:45;26.53;;;18.13;;
7179;SDS011;3631;42.152;24.756;2023-01-04T15:14:12;29.20;;;17.53;;
7179;SDS011;3631;42.152;24.756;2023-01-04T15:16:39;22.60;;;17.70;;
7179;SDS011;3631;42.152;24.756;2023-01-04T15:19:06;27.40;;;19.13;;
7179;SDS011;3631;42.152;24.756;2023-01-04T15:21:32;24.17;;;17.37;;
7179;SDS011;3631;42.152;24.756;2023-01-04T15:23:59;27.30;;;18.07;;
7179;SDS011;3631;42.152;24.756;2023-01-04T15:26:28;26.07;;;18.80;;
7179;SDS011;3631;42.152;24.756;2023-01-04T15:28:55;27.40;;;18.30;;